航空気象通報

ウインドサーファーのための航空気象通報による風予報です。

10/14-10/16の航空気象通報

2016年10月14日 23時51分21秒 | TAF

羽田空港
TAF RJTT 141105Z 1412/1518 36010KT 9999 FEW030
BECMG 1503/1506 12010KT
BECMG 1512/1515 36010KT
日本時間14日21時-15日12時:360度から10ノットの風
12-15時:風が変化
15-21時:120度から10ノットの風
21-24時:風が変化
16日00-03時:360度から10ノットの風

静岡空港
TAF RJNS 141106Z 1412/1518 34004KT 9999 FEW025
BECMG 1422/1424 08008KT
BECMG 1509/1512 34006KT
日本時間14日21時-15日07時:340度から4ノットの風
07-09時:風が変化
09-18時:080度から8ノットの風
18-21時:風が変化
21時-16日03時:340度から6ノットの風

福岡空港
TAF RJFF 141106Z 1412/1518 05004KT 9999 FEW030
BECMG 1412/1414 14005KT
BECMG 1500/1503 07010KT
BECMG 1512/1515 13006KT
日本時間14日21時:050度から4ノットの風
21-23時:風が変化
23時-15日09時:140度から5ノットの風
09-12時:風が変化
12-21時:070度から10ノットの風
21-24時:風が変化
16日00-03時:130度から6ノットの風

那覇空港
TAF ROAH 141109Z 1412/1518 07015KT 9999 FEW010 BKN020
TEMPO 1412/1416 07017G28KT
TEMPO 1500/1506 4000 SHRA FEW008 BKN015 FEW025CB
BECMG 1512/1515 12006KT
日本時間14日21時-15日21時:070度から15ノットの風
但し、14日21時-15日01時の間:ときどき070度から17ノット、突風28ノット
21-24時:風が変化
16日00-03時:120度から6ノットの風

但し、15日09-15時の間:ときどき

石垣空港
TAF ROIG 141113Z 1412/1518 05013KT 9999 FEW010 SCT020
TEMPO 1420/1424 4000 SHRA FEW008 BKN015 FEW025CB
TEMPO 1503/1506 4000 SHRA
日本時間14日21時-16日03時:050度から13ノットの風

但し、15日05-09時の間:ときどき
但し、15日12-15時の間:ときどき

マウイのカフルイ空港
PHOG 141149Z 1412/1512 05014G20KT P6SM FEW025 SCT045 BKN060
FM142100 05018G26KT P6SM FEW045 SCT060
FM150600 05014G20KT P6SM FEW025 SCT045
ハワイ時間14日02-11時:050度から14ノット、突風20ノット

11-20時:050度から18ノット、突風26ノット
20時-15日02時:050度から14ノット、突風20ノット

サイパン空港
TAF PGSN 141120Z 1412/1512 07015KT P6SM VCSH SCT020 BKN040 BKN120
マリアナ時間14日22時-15日22時:070度から15ノットの風

ジャンル:
お天気
コメント   この記事についてブログを書く
この記事をはてなブックマークに追加
« 10/12-10/14の航空気象通報 | トップ | 10/15-10/17の航空気象通報 »
最近の画像もっと見る

コメントを投稿

ブログ作成者から承認されるまでコメントは反映されません。

コメント利用規約に同意の上コメント投稿を行ってください。

数字4桁を入力し、投稿ボタンを押してください。

あわせて読む

トラックバック

この記事のトラックバック  Ping-URL
ブログ作成者から承認されるまでトラックバックは反映されません。
  • 30日以上前の記事に対するトラックバックは受け取らないよう設定されております。
  • 送信元の記事内容が半角英数のみのトラックバックは受け取らないよう設定されております。
  • このブログへのリンクがない記事からのトラックバックは受け取らないよう設定されております。
  • ※ブログ管理者のみ、編集画面で設定の変更が可能です。